KHPT/HPT METAR and TAF weather

Enter ICAO airport designator
Station Type Date Time Source
KHPT METAR 2023/01/29 17:55 UTC NOAA

KHPT 291755Z AUTO 35013KT 10SM CLR M15/M21 A3039 RMK AO2


Station Type Date Time Source
KHPT Decoded METAR 2023/01/29 17:55 UTC NOAA

Station name not available
Jan 29, 2023 - 12:55 PM EST / 2023.01.29 1755 UTC
Wind: from the N (350 degrees) at 15 MPH (13 KT):0
Visibility: 10 mile(s):0
Sky conditions: clear
Temperature: 5 F (-15 C)
Windchill: -13 F (-25 C):2
Dew Point: -5 F (-21 C)
Relative Humidity: 60%
Pressure (altimeter): 30.39 in. Hg (1029 hPa)
ob: KHPT 291755Z AUTO 35013KT 10SM CLR M15/M21 A3039 RMK AO2
cycle: 18

Station Type Date Time Source
KHPT TAF UTC NOAA

Error!

Example: see airport list